createdAt,value
2022-08-31T00:00:09.599Z,154481.31
2022-08-31T00:02:55.083Z,154489.06
2022-08-31T00:05:23.247Z,154469.63
2022-08-31T00:07:51.778Z,154493.00
2022-08-31T00:10:32.354Z,154485.19
2022-08-31T00:13:07.102Z,154491.66
2022-08-31T00:15:35.865Z,154477.38
2022-08-31T00:18:04.150Z,154464.44
2022-08-31T00:20:33.433Z,154455.34
2022-08-31T00:23:02.578Z,154437.13
2022-08-31T00:25:30.440Z,154454.03
2022-08-31T00:27:58.206Z,154454.03
2022-08-31T00:30:27.581Z,154454.03
2022-08-31T00:32:58.251Z,154469.63
2022-08-31T00:35:27.393Z,154460.56
2022-08-31T00:37:55.166Z,154452.69
2022-08-31T00:40:23.287Z,154446.22
2022-08-31T00:42:51.361Z,154426.72
2022-08-31T00:45:19.334Z,154415.06
2022-08-31T00:47:48.608Z,154399.50
2022-08-31T00:50:19.414Z,154391.69
2022-08-31T00:52:51.128Z,154415.06
2022-08-31T00:55:22.745Z,154422.84
2022-08-31T00:57:54.141Z,154395.56
2022-08-31T01:00:25.509Z,154383.91
2022-08-31T01:02:56.025Z,154389.09
2022-08-31T01:05:23.880Z,154387.81
2022-08-31T01:07:52.682Z,154390.41
2022-08-31T01:10:23.131Z,154386.50
2022-08-31T01:12:54.107Z,154370.94
2022-08-31T01:15:22.914Z,154352.78
2022-08-31T01:17:55.503Z,154382.63
2022-08-31T01:20:30.208Z,154347.59
2022-08-31T01:23:12.101Z,154348.84
2022-08-31T01:25:42.855Z,154355.38
2022-08-31T01:28:12.202Z,154355.38
2022-08-31T01:30:42.672Z,154350.19
2022-08-31T01:33:11.479Z,154334.56
2022-08-31T01:35:41.430Z,154339.78
2022-08-31T01:38:13.280Z,154320.31
2022-08-31T01:40:47.988Z,154325.50
2022-08-31T01:43:16.845Z,154313.81
2022-08-31T01:45:44.978Z,154317.75
2022-08-31T01:48:13.198Z,154319.03
2022-08-31T01:50:41.493Z,154322.91
2022-08-31T01:53:11.175Z,154319.03
2022-08-31T01:55:39.009Z,154319.03
2022-08-31T01:58:07.410Z,154337.19
2022-08-31T02:00:36.087Z,154329.44
2022-08-31T02:03:05.195Z,154329.44
2022-08-31T02:05:33.006Z,154299.53
2022-08-31T02:08:00.774Z,154317.75
2022-08-31T02:10:30.000Z,154309.94
2022-08-31T02:12:58.067Z,154312.53
2022-08-31T02:15:25.964Z,154313.81
2022-08-31T02:17:53.668Z,154306.06
2022-08-31T02:20:21.505Z,154325.50
2022-08-31T02:22:50.249Z,154308.63
2022-08-31T02:25:18.085Z,154296.94
2022-08-31T02:27:47.257Z,154319.03
2022-08-31T02:30:19.118Z,154319.03
2022-08-31T02:32:46.955Z,154317.75
2022-08-31T02:35:15.065Z,154316.44
2022-08-31T02:37:42.883Z,154306.06
2022-08-31T02:40:12.196Z,154289.19
2022-08-31T02:42:52.501Z,154282.72
2022-08-31T02:45:23.433Z,154282.72
2022-08-31T02:47:51.436Z,154260.66
2022-08-31T02:50:19.614Z,154280.13
2022-08-31T02:52:48.034Z,154259.31
2022-08-31T02:55:15.866Z,154290.47
2022-08-31T02:57:43.651Z,154290.47
2022-08-31T03:00:13.096Z,154286.59
2022-08-31T03:02:42.431Z,154277.53
2022-08-31T03:05:11.877Z,154273.59
2022-08-31T03:07:40.413Z,154277.53
2022-08-31T03:10:10.541Z,154251.56
2022-08-31T03:12:38.670Z,154232.09
2022-08-31T03:15:08.639Z,154246.38
2022-08-31T03:17:37.092Z,154252.84
2022-08-31T03:20:07.627Z,154281.41
2022-08-31T03:22:35.906Z,154246.38
2022-08-31T03:25:05.308Z,154269.72
2022-08-31T03:27:33.155Z,154268.44
2022-08-31T03:30:01.546Z,154276.19
2022-08-31T03:32:30.863Z,154277.53
2022-08-31T03:35:00.675Z,154278.78
2022-08-31T03:37:29.893Z,154269.72
2022-08-31T03:39:57.705Z,154258.03
2022-08-31T03:42:26.457Z,154260.66
2022-08-31T03:44:55.488Z,154237.31
2022-08-31T03:47:23.313Z,154235.97
2022-08-31T03:49:51.346Z,154221.75
2022-08-31T03:52:20.748Z,154216.56
2022-08-31T03:54:49.868Z,154230.81
2022-08-31T03:57:17.791Z,154230.81
2022-08-31T03:59:45.561Z,154232.09
2022-08-31T04:02:13.392Z,154232.09
2022-08-31T04:04:41.319Z,154207.47
2022-08-31T04:07:09.026Z,154216.56
2022-08-31T04:09:36.914Z,154197.06
2022-08-31T04:12:06.300Z,154180.19
2022-08-31T04:14:34.211Z,154171.09
2022-08-31T04:17:02.082Z,154151.63
2022-08-31T04:19:31.540Z,154152.94
2022-08-31T04:21:59.586Z,154138.66
2022-08-31T04:24:27.395Z,154127.00
2022-08-31T04:26:55.272Z,154121.78
2022-08-31T04:29:24.707Z,154110.13
2022-08-31T04:31:52.603Z,154059.56
2022-08-31T04:34:20.662Z,154058.25
2022-08-31T04:36:48.474Z,154033.63
2022-08-31T04:39:17.027Z,154047.91
2022-08-31T04:41:44.876Z,154040.09
2022-08-31T04:44:16.462Z,154016.78
2022-08-31T04:46:48.750Z,154025.84
2022-08-31T04:49:16.558Z,153989.56
2022-08-31T04:51:46.251Z,153997.31
2022-08-31T04:54:14.936Z,153998.63
2022-08-31T04:56:45.849Z,153963.63
2022-08-31T04:59:16.229Z,153972.69
2022-08-31T05:01:45.985Z,153986.97
2022-08-31T05:04:16.979Z,153964.91
2022-08-31T05:06:47.188Z,153932.50
2022-08-31T05:09:18.247Z,153942.91
2022-08-31T05:11:46.675Z,153924.72
2022-08-31T05:14:14.558Z,153924.72
2022-08-31T05:16:43.239Z,153914.38
2022-08-31T05:19:11.487Z,153954.56
2022-08-31T05:21:42.877Z,153936.38
2022-08-31T05:24:13.279Z,153932.50
2022-08-31T05:26:44.706Z,153942.91
2022-08-31T05:29:14.402Z,153911.78
2022-08-31T05:31:43.226Z,153950.66
2022-08-31T05:34:12.558Z,153954.56
2022-08-31T05:36:42.719Z,153953.25
2022-08-31T05:39:11.882Z,153955.84
2022-08-31T05:41:40.700Z,153954.56
2022-08-31T05:44:10.015Z,153957.16
2022-08-31T05:46:38.291Z,153955.84
2022-08-31T05:49:08.350Z,153981.78
2022-08-31T05:51:39.533Z,153967.50
2022-08-31T05:54:10.712Z,153973.97
2022-08-31T05:56:41.161Z,153980.50
2022-08-31T05:59:11.009Z,153971.38
2022-08-31T06:01:41.077Z,153994.72
2022-08-31T06:04:09.778Z,154015.50
2022-08-31T06:06:38.235Z,154033.63
2022-08-31T06:09:08.649Z,154038.84
2022-08-31T06:11:38.904Z,154054.38
2022-08-31T06:14:06.774Z,154056.97
2022-08-31T06:16:36.088Z,154064.78
2022-08-31T06:19:07.098Z,154081.59
2022-08-31T06:21:38.539Z,154111.44
2022-08-31T06:24:10.933Z,154152.94
2022-08-31T06:26:40.768Z,154191.88
2022-08-31T06:29:09.461Z,154237.31
2022-08-31T06:31:39.767Z,154271.03
2022-08-31T06:34:08.318Z,154321.63
2022-08-31T06:36:36.657Z,154334.56
2022-08-31T06:39:04.605Z,154377.41
2022-08-31T06:41:36.933Z,154376.13
2022-08-31T06:44:07.853Z,154477.38
2022-08-31T06:46:36.974Z,154512.47
2022-08-31T06:49:05.769Z,154515.03
2022-08-31T06:51:38.080Z,154438.41
2022-08-31T06:54:27.992Z,154412.44
2022-08-31T06:56:58.210Z,154354.06
2022-08-31T06:59:28.787Z,154324.22
2022-08-31T07:01:57.727Z,154291.78
2022-08-31T07:04:26.285Z,154342.38
2022-08-31T07:06:54.614Z,154330.69
2022-08-31T07:09:23.058Z,154344.97
2022-08-31T07:11:52.519Z,154370.94
2022-08-31T07:14:24.103Z,154360.53
2022-08-31T07:16:53.251Z,154333.31
2022-08-31T07:19:22.033Z,154359.25
2022-08-31T07:21:51.570Z,154382.63
2022-08-31T07:24:24.341Z,154411.19
2022-08-31T07:26:58.170Z,154431.94
2022-08-31T07:29:30.470Z,154456.63
2022-08-31T07:31:59.346Z,154478.72
2022-08-31T07:34:29.271Z,154491.66
2022-08-31T07:37:15.888Z,154542.31
2022-08-31T07:40:06.376Z,154555.28
2022-08-31T07:42:38.668Z,154559.22
2022-08-31T07:45:12.762Z,154602.03
2022-08-31T07:47:45.368Z,154624.13
2022-08-31T07:50:15.012Z,154633.19
2022-08-31T07:52:48.374Z,154621.50
2022-08-31T07:55:18.055Z,154648.75
2022-08-31T07:57:45.987Z,154656.56
2022-08-31T08:00:20.922Z,154594.25
2022-08-31T08:02:53.339Z,154598.16
2022-08-31T08:05:27.227Z,154603.34
2022-08-31T08:07:59.172Z,154585.19
2022-08-31T08:10:27.016Z,154615.03
2022-08-31T08:13:00.758Z,154661.78
2022-08-31T08:15:36.199Z,154690.34
2022-08-31T08:18:04.938Z,154713.78
2022-08-31T08:20:35.275Z,154743.66
2022-08-31T08:23:09.018Z,154828.09
2022-08-31T08:25:38.719Z,154874.84
2022-08-31T08:28:23.122Z,154841.06
2022-08-31T08:31:01.489Z,154872.25
2022-08-31T08:33:30.251Z,154934.66
2022-08-31T08:35:59.560Z,154989.25
2022-08-31T08:38:30.989Z,155062.03
2022-08-31T08:41:00.667Z,155146.53
2022-08-31T08:43:33.579Z,155259.72
2022-08-31T08:46:20.105Z,155322.19
2022-08-31T08:48:54.645Z,155402.81
2022-08-31T08:51:26.753Z,155404.16
2022-08-31T08:54:02.830Z,155436.72
2022-08-31T08:56:33.923Z,155488.78
2022-08-31T08:59:07.357Z,155501.75
2022-08-31T09:01:40.397Z,155461.41
2022-08-31T09:04:17.213Z,155452.31
2022-08-31T09:06:54.715Z,155497.88
2022-08-31T09:09:37.607Z,155592.84
2022-08-31T09:12:24.079Z,155625.47
2022-08-31T09:15:36.240Z,155664.50
2022-08-31T09:18:14.702Z,155749.13
2022-08-31T09:20:43.508Z,155724.38
2022-08-31T09:23:14.387Z,155755.63
2022-08-31T09:25:49.799Z,155760.84
2022-08-31T09:28:18.878Z,155738.69
2022-08-31T09:30:52.410Z,155734.81
2022-08-31T09:33:24.462Z,155652.81
2022-08-31T09:35:56.677Z,155668.41
2022-08-31T09:38:30.079Z,155714.00
2022-08-31T09:40:58.725Z,155730.94
2022-08-31T09:43:38.628Z,155829.94
2022-08-31T09:46:11.772Z,155892.44
2022-08-31T09:48:51.395Z,155910.66
2022-08-31T09:51:28.293Z,155960.16
2022-08-31T09:54:17.994Z,156004.44
2022-08-31T09:56:55.257Z,156081.41
2022-08-31T09:59:37.286Z,156125.69
2022-08-31T10:02:09.449Z,156166.09
2022-08-31T10:04:52.201Z,156173.91
2022-08-31T10:07:37.755Z,156189.56
2022-08-31T10:10:18.795Z,156186.94
2022-08-31T10:13:03.720Z,156137.44
2022-08-31T10:15:35.380Z,156267.84
2022-08-31T10:18:11.984Z,156314.75
2022-08-31T10:20:48.376Z,156262.59
2022-08-31T10:23:22.056Z,156230.03
2022-08-31T10:25:57.505Z,156361.69
2022-08-31T10:28:36.670Z,156426.94
2022-08-31T10:31:13.488Z,156408.69
2022-08-31T10:34:16.259Z,156383.84
2022-08-31T10:36:48.579Z,156412.59
2022-08-31T10:39:25.794Z,156338.22
2022-08-31T10:41:53.661Z,156283.47
2022-08-31T10:44:32.597Z,156254.78
2022-08-31T10:47:05.702Z,156241.75
2022-08-31T10:49:35.421Z,156218.25
2022-08-31T10:52:11.877Z,156173.91
2022-08-31T10:54:48.847Z,156216.91
2022-08-31T10:57:31.502Z,156154.38
2022-08-31T11:00:04.077Z,156180.44
2022-08-31T11:02:55.471Z,156150.44
2022-08-31T11:05:35.268Z,156132.19
2022-08-31T11:08:18.579Z,156197.34
2022-08-31T11:10:51.948Z,156254.78
2022-08-31T11:13:39.456Z,156374.72
2022-08-31T11:16:32.774Z,156489.50
2022-08-31T11:19:27.285Z,156543.03
2022-08-31T11:22:16.635Z,156502.56
2022-08-31T11:25:10.028Z,156463.47
2022-08-31T11:27:44.277Z,156466.03
2022-08-31T11:30:24.359Z,156392.97
2022-08-31T11:32:55.384Z,156429.53
2022-08-31T11:36:06.093Z,156373.44
2022-08-31T11:38:48.759Z,156442.56
2022-08-31T11:41:39.501Z,156503.84
2022-08-31T11:44:09.032Z,156539.06
2022-08-31T11:47:14.570Z,156505.19
2022-08-31T11:49:48.591Z,156423.03
2022-08-31T11:52:48.095Z,156400.78
2022-08-31T11:55:23.475Z,156351.25
2022-08-31T11:58:20.751Z,156456.91
2022-08-31T12:00:54.117Z,156518.22
2022-08-31T12:04:03.867Z,156592.63
2022-08-31T12:07:08.440Z,156772.72
2022-08-31T12:09:58.225Z,156899.38
2022-08-31T12:12:38.719Z,156805.34
2022-08-31T12:15:20.325Z,156738.78
2022-08-31T12:18:05.517Z,156625.25
2022-08-31T12:21:08.369Z,156639.59
2022-08-31T12:23:39.660Z,156715.28
2022-08-31T12:26:44.945Z,156817.09
2022-08-31T12:29:26.688Z,156657.84
2022-08-31T12:32:17.861Z,156691.81
2022-08-31T12:34:50.354Z,156841.91
2022-08-31T12:37:24.982Z,156981.66
2022-08-31T12:40:12.127Z,157020.81
2022-08-31T12:42:44.982Z,156954.19
2022-08-31T12:45:16.780Z,156898.03
2022-08-31T12:47:56.843Z,156813.19
2022-08-31T12:50:34.474Z,156745.28
2022-08-31T12:53:32.156Z,156740.06
2022-08-31T12:56:06.886Z,156703.53
2022-08-31T12:58:55.606Z,156794.94
2022-08-31T13:01:27.551Z,156890.19
2022-08-31T13:04:01.899Z,156993.41
2022-08-31T13:06:32.567Z,157062.56
2022-08-31T13:09:02.186Z,157104.44
2022-08-31T13:11:40.686Z,157063.91
2022-08-31T13:14:15.764Z,157110.97
2022-08-31T13:16:46.030Z,157059.97
2022-08-31T13:19:25.840Z,157088.69
2022-08-31T13:21:56.970Z,157080.91
2022-08-31T13:24:29.017Z,156822.31
2022-08-31T13:27:12.402Z,156988.16
2022-08-31T13:29:45.495Z,157024.72
2022-08-31T13:32:31.697Z,157053.44
2022-08-31T13:35:04.325Z,157112.25
2022-08-31T13:37:38.608Z,157103.13
2022-08-31T13:40:11.002Z,157147.50
2022-08-31T13:42:42.882Z,156996.03
2022-08-31T13:45:26.273Z,157078.28
2022-08-31T13:47:58.291Z,157171.03
2022-08-31T13:50:34.137Z,157222.00
2022-08-31T13:53:25.803Z,157155.38
2022-08-31T13:55:53.247Z,157197.16
2022-08-31T13:58:28.785Z,157257.25
2022-08-31T14:01:22.188Z,157301.72
2022-08-31T14:03:56.330Z,157347.47
2022-08-31T14:06:27.603Z,157157.97
2022-08-31T14:09:03.253Z,157197.16
2022-08-31T14:11:32.031Z,157168.44
2022-08-31T14:14:06.119Z,157263.81
2022-08-31T14:16:37.077Z,157305.63
2022-08-31T14:19:05.765Z,157177.59
2022-08-31T14:21:40.178Z,157207.63
2022-08-31T14:24:10.527Z,157139.72
2022-08-31T14:26:41.536Z,157177.59
2022-08-31T14:29:12.407Z,157063.91
2022-08-31T14:31:45.569Z,157112.25
2022-08-31T14:34:24.255Z,157118.81
2022-08-31T14:36:57.608Z,156967.28
2022-08-31T14:39:30.795Z,156997.31
2022-08-31T14:42:00.971Z,157003.81
2022-08-31T14:44:32.424Z,156988.16
2022-08-31T14:47:00.526Z,157093.94
2022-08-31T14:49:31.561Z,157066.53
2022-08-31T14:52:06.499Z,157063.91
2022-08-31T14:54:37.592Z,157022.13
2022-08-31T14:57:11.540Z,156998.59
2022-08-31T14:59:43.113Z,156977.72
2022-08-31T15:02:13.659Z,156878.44
2022-08-31T15:04:45.836Z,156758.31
2022-08-31T15:07:16.696Z,156767.50
2022-08-31T15:09:46.717Z,156771.44
2022-08-31T15:12:15.374Z,156807.97
2022-08-31T15:14:44.824Z,156745.28
2022-08-31T15:17:19.206Z,156745.28
2022-08-31T15:19:50.503Z,156725.69
2022-08-31T15:22:19.997Z,156741.38
2022-08-31T15:24:48.071Z,156719.19
2022-08-31T15:27:16.499Z,156659.13
2022-08-31T15:29:46.729Z,156638.28
2022-08-31T15:32:16.685Z,156586.09
2022-08-31T15:34:57.807Z,156596.53
2022-08-31T15:37:31.699Z,156570.41
2022-08-31T15:40:01.643Z,156505.19
2022-08-31T15:42:31.331Z,156447.78
2022-08-31T15:45:00.201Z,156458.25
2022-08-31T15:47:47.998Z,156436.06
2022-08-31T15:50:19.196Z,156398.19
2022-08-31T15:52:51.674Z,156407.34
2022-08-31T15:55:26.373Z,156420.41
2022-08-31T15:57:55.956Z,156374.72
2022-08-31T16:00:25.874Z,156369.50
2022-08-31T16:02:57.578Z,156357.75
2022-08-31T16:05:28.306Z,156424.31
2022-08-31T16:07:58.168Z,156399.50
2022-08-31T16:10:28.183Z,156406.06
2022-08-31T16:12:56.225Z,156347.34
2022-08-31T16:15:25.120Z,156305.66
2022-08-31T16:17:57.642Z,156312.16
2022-08-31T16:20:27.404Z,156275.63
2022-08-31T16:22:55.495Z,156263.88
2022-08-31T16:25:25.286Z,156226.09
2022-08-31T16:27:59.817Z,156235.22
2022-08-31T16:30:28.955Z,156210.41
2022-08-31T16:32:56.826Z,156181.72
2022-08-31T16:35:24.754Z,156168.72
2022-08-31T16:37:52.634Z,156137.44
2022-08-31T16:40:22.623Z,156102.25
2022-08-31T16:42:51.884Z,156107.47
2022-08-31T16:45:19.966Z,156063.13
2022-08-31T16:47:47.738Z,156031.88
2022-08-31T16:50:16.003Z,156052.72
2022-08-31T16:52:44.621Z,156056.63
2022-08-31T16:55:17.072Z,156047.50
2022-08-31T16:57:45.764Z,156017.50
2022-08-31T17:00:15.737Z,156009.66
2022-08-31T17:02:43.627Z,155978.38
2022-08-31T17:05:12.890Z,155988.81
2022-08-31T17:07:42.669Z,155983.59
2022-08-31T17:10:11.043Z,155978.38
2022-08-31T17:12:42.002Z,155969.28
2022-08-31T17:15:13.829Z,155921.09
2022-08-31T17:17:46.226Z,155932.81
2022-08-31T17:20:16.397Z,155923.72
2022-08-31T17:22:45.982Z,155918.50
2022-08-31T17:25:14.360Z,155905.44
2022-08-31T17:27:42.136Z,155875.50
2022-08-31T17:30:13.563Z,155861.16
2022-08-31T17:32:45.213Z,155859.88
2022-08-31T17:35:17.395Z,155841.66
2022-08-31T17:37:45.836Z,155784.28
2022-08-31T17:40:14.220Z,155772.56
2022-08-31T17:42:42.279Z,155760.84
2022-08-31T17:45:10.825Z,155742.63
2022-08-31T17:47:38.585Z,155732.19
2022-08-31T17:50:08.622Z,155704.88
2022-08-31T17:52:36.417Z,155704.88
2022-08-31T17:55:04.778Z,155687.94
2022-08-31T17:57:32.503Z,155674.94
2022-08-31T18:00:00.260Z,155661.91
2022-08-31T18:02:33.033Z,155639.75
2022-08-31T18:05:01.314Z,155620.22
2022-08-31T18:07:30.433Z,155592.84
2022-08-31T18:09:58.960Z,155581.13
2022-08-31T18:12:27.363Z,155525.19
2022-08-31T18:14:57.974Z,155512.19
2022-08-31T18:17:26.465Z,155505.66
2022-08-31T18:19:54.874Z,155492.66
2022-08-31T18:22:22.597Z,155439.31
2022-08-31T18:24:51.620Z,155425.00
2022-08-31T18:27:20.165Z,155419.78
2022-08-31T18:29:47.944Z,155395.03
2022-08-31T18:32:16.109Z,155401.53
2022-08-31T18:34:46.169Z,155388.50
2022-08-31T18:37:16.165Z,155297.47
2022-08-31T18:40:08.518Z,155302.66
2022-08-31T18:43:00.990Z,155293.56
2022-08-31T18:45:30.699Z,155274.03
2022-08-31T18:48:24.857Z,155263.63
2022-08-31T18:50:48.773Z,155228.50
2022-08-31T18:53:27.784Z,155181.66
2022-08-31T18:55:58.042Z,155171.28
2022-08-31T18:58:27.256Z,155163.47
2022-08-31T19:00:57.404Z,155140.06
2022-08-31T19:03:27.157Z,155112.78
2022-08-31T19:05:55.110Z,155095.84
2022-08-31T19:08:23.233Z,155065.97
2022-08-31T19:10:51.287Z,155052.94
2022-08-31T19:13:19.150Z,155047.75
2022-08-31T19:15:48.485Z,155032.16
2022-08-31T19:18:16.515Z,154997.06
2022-08-31T19:20:44.356Z,154973.66
2022-08-31T19:23:15.450Z,154984.09
2022-08-31T19:25:48.322Z,155004.88
2022-08-31T19:28:16.265Z,154968.47
2022-08-31T19:30:47.639Z,154984.09
2022-08-31T19:33:16.965Z,154976.28
2022-08-31T19:35:45.387Z,154955.47
2022-08-31T19:38:14.382Z,154968.47
2022-08-31T19:40:42.368Z,154965.84
2022-08-31T19:46:09.552Z,154963.25
2022-08-31T19:48:46.170Z,154955.47
2022-08-31T19:51:15.507Z,154963.25
2022-08-31T19:53:44.865Z,154938.53
2022-08-31T19:56:17.261Z,154929.44
2022-08-31T19:58:46.942Z,154917.75
2022-08-31T20:01:14.909Z,154889.16
2022-08-31T20:03:45.264Z,154846.25
2022-08-31T20:06:16.358Z,154876.13
2022-08-31T20:08:44.842Z,154894.38
2022-08-31T20:11:19.334Z,154874.84
2022-08-31T20:13:49.615Z,154846.25
2022-08-31T20:16:18.606Z,154837.19
2022-08-31T20:18:48.771Z,154821.59
2022-08-31T20:21:19.264Z,154817.66
2022-08-31T20:23:48.933Z,154822.88
2022-08-31T20:26:21.197Z,154812.50
2022-08-31T20:28:52.613Z,154825.47
2022-08-31T20:31:21.190Z,154777.44
2022-08-31T20:33:50.532Z,154785.19
2022-08-31T20:36:22.701Z,154802.09
2022-08-31T20:38:57.112Z,154815.13
2022-08-31T20:41:26.265Z,154786.53
2022-08-31T20:43:55.580Z,154768.31
2022-08-31T20:46:40.639Z,154763.16
2022-08-31T20:49:26.222Z,154735.84
2022-08-31T20:51:55.888Z,154729.34
2022-08-31T20:54:24.717Z,154716.38
2022-08-31T20:56:53.711Z,154687.75
2022-08-31T20:59:23.613Z,154677.34
2022-08-31T21:01:55.219Z,154679.94
2022-08-31T21:04:24.652Z,154678.66
2022-08-31T21:06:53.288Z,154655.31
2022-08-31T21:09:21.512Z,154635.81
2022-08-31T21:11:50.386Z,154625.41
2022-08-31T21:14:20.668Z,154621.50
2022-08-31T21:16:49.144Z,154599.41
2022-08-31T21:19:22.203Z,154582.59
2022-08-31T21:21:53.523Z,154573.44
2022-08-31T21:24:22.244Z,154570.91
2022-08-31T21:26:59.326Z,154559.22
2022-08-31T21:29:29.205Z,154526.72
2022-08-31T21:32:03.424Z,154529.31
2022-08-31T21:34:32.772Z,154529.31
2022-08-31T21:37:02.000Z,154502.06
2022-08-31T21:39:32.487Z,154469.63
2022-08-31T21:42:01.166Z,154487.78
2022-08-31T21:44:29.056Z,154483.91
2022-08-31T21:46:57.047Z,154486.50
2022-08-31T21:49:25.327Z,154485.19
2022-08-31T21:51:54.744Z,154477.38
2022-08-31T21:54:27.388Z,154463.16
2022-08-31T21:56:57.463Z,154456.63
2022-08-31T21:59:28.277Z,154430.59
2022-08-31T22:01:59.317Z,154444.91
2022-08-31T22:04:28.048Z,154418.94
2022-08-31T22:06:56.433Z,154433.22
2022-08-31T22:09:26.904Z,154434.53
2022-08-31T22:11:58.251Z,154441.00
2022-08-31T22:14:29.697Z,154431.94
2022-08-31T22:16:59.239Z,154435.81
2022-08-31T22:19:28.582Z,154438.41
2022-08-31T22:21:59.045Z,154417.66
2022-08-31T22:24:30.306Z,154433.22
2022-08-31T22:27:00.604Z,154446.22
2022-08-31T22:29:31.332Z,154438.41
2022-08-31T22:32:01.625Z,154431.94
2022-08-31T22:34:29.836Z,154463.16
2022-08-31T22:36:58.626Z,154441.00
2022-08-31T22:39:30.138Z,154463.16
2022-08-31T22:41:59.206Z,154461.81
2022-08-31T22:44:29.788Z,154456.63
2022-08-31T22:46:57.891Z,154431.94
2022-08-31T22:49:27.171Z,154443.63
2022-08-31T22:51:55.217Z,154430.59
2022-08-31T22:54:23.855Z,154451.41
2022-08-31T22:56:53.241Z,154444.91
2022-08-31T22:59:27.062Z,154435.81
2022-08-31T23:01:58.329Z,154442.28
2022-08-31T23:04:29.907Z,154398.16
2022-08-31T23:06:59.190Z,154381.28
2022-08-31T23:09:30.993Z,154392.97
2022-08-31T23:12:02.223Z,154367.06
2022-08-31T23:14:32.084Z,154360.53
2022-08-31T23:17:01.682Z,154360.53
2022-08-31T23:19:33.022Z,154346.25
2022-08-31T23:22:02.091Z,154321.63
2022-08-31T23:24:32.890Z,154342.38
2022-08-31T23:27:04.990Z,154315.16
2022-08-31T23:29:34.578Z,154296.94
2022-08-31T23:32:03.008Z,154319.03
2022-08-31T23:34:31.377Z,154306.06
2022-08-31T23:36:59.204Z,154298.28
2022-08-31T23:39:27.702Z,154320.31
2022-08-31T23:41:55.469Z,154313.81
2022-08-31T23:44:24.836Z,154278.78
2022-08-31T23:46:52.945Z,154312.53
2022-08-31T23:49:21.663Z,154295.69
2022-08-31T23:51:50.396Z,154298.28
2022-08-31T23:54:19.068Z,154296.94
2022-08-31T23:56:48.723Z,154306.06
2022-08-31T23:59:19.957Z,154295.69
